Time;durP1;ratioP1;P1;durP2;ratioP2;P2;SDS_P1;SDS_P2;PMS_P1;PMS_P2;Temp;Humidity;BMP_temperature;BMP_pressure;BME280_temperature;BME280_humidity;BME280_pressure;Samples;Min_cycle;Max_cycle;Signal;HPM_P1;HPM_P2
2022/02/28 00:01:43;;;;;;;;;;;;;;;18.47;41.75;102986.28;5016752;28;19914;-63
2022/02/28 00:04:08;;;;;;;5.70;3.20;;;;;;;18.43;41.48;102987.38;5016553;28;19991;-61
2022/02/28 00:06:33;;;;;;;;;;;;;;;18.40;41.58;102985.72;5015656;28;19914;-63
2022/02/28 00:08:59;;;;;;;5.20;2.92;;;;;;;18.38;41.52;102979.66;5016136;28;20052;-63
2022/02/28 00:11:24;;;;;;;5.45;3.15;;;;;;;18.34;41.80;102980.75;5016100;28;20034;-62
2022/02/28 00:13:49;;;;;;;6.68;3.30;;;;;;;18.32;41.67;102977.31;5015679;28;20029;-62
2022/02/28 00:16:15;;;;;;;5.53;3.03;;;;;;;18.27;41.75;102971.41;5016391;28;20038;-62
2022/02/28 00:18:40;;;;;;;5.72;3.10;;;;;;;18.26;41.76;102972.34;5016046;28;20268;-62
2022/02/28 00:21:06;;;;;;;5.25;3.13;;;;;;;18.24;41.88;102976.84;5015615;28;20018;-63
2022/02/28 00:23:32;;;;;;;4.72;3.05;;;;;;;18.21;42.46;102975.19;5015859;28;20034;-63
2022/02/28 00:25:57;;;;;;;;;;;;;;;18.20;42.09;102975.25;5016396;28;20080;-62
2022/02/28 00:28:23;;;;;;;;;;;;;;;18.18;41.99;102974.50;5015239;28;20316;-63
2022/02/28 00:30:48;;;;;;;;;;;;;;;18.16;42.04;102976.34;5016595;28;19913;-63
2022/02/28 00:33:13;;;;;;;;;;;;;;;18.13;42.04;102972.94;5015777;28;19909;-62
2022/02/28 00:35:42;;;;;;;;;;;;;;;18.13;41.85;102969.44;5016055;28;19920;-62
2022/02/28 00:38:08;;;;;;;;;;;;;;;18.11;42.23;102971.28;5016227;28;19959;-62
2022/02/28 00:40:33;;;;;;;;;;;;;;;18.08;42.21;102961.72;5015445;28;19914;-62
2022/02/28 00:43:01;;;;;;;;;;;;;;;18.07;42.04;102967.97;5016255;28;20068;-62
2022/02/28 00:45:26;;;;;;;;;;;;;;;18.05;41.97;102977.72;5015850;28;19936;-62
2022/02/28 00:47:51;;;;;;;;;;;;;;;18.04;42.07;102976.00;5014288;28;20304;-62
2022/02/28 00:50:17;;;;;;;;;;;;;;;18.02;42.26;102980.50;5016214;28;19917;-62
2022/02/28 00:52:42;;;;;;;;;;;;;;;18.00;42.20;102979.72;5015696;28;19920;-62
2022/02/28 00:55:09;;;;;;;;;;;;;;;17.98;41.91;102984.22;5015577;28;19917;-62
2022/02/28 00:57:34;;;;;;;;;;;;;;;17.97;41.87;102971.09;5015884;28;19920;-62
2022/02/28 00:59:59;;;;;;;;;;;;;;;17.94;41.99;102974.72;5016250;28;19913;-62
2022/02/28 01:02:24;;;;;;;;;;;;;;;17.94;42.15;102980.00;5015012;28;20385;-62
2022/02/28 01:04:49;;;;;;;;;;;;;;;17.93;41.90;102973.03;5015929;28;20003;-62
2022/02/28 01:07:15;;;;;;;;;;;;;;;17.90;41.70;102974.00;5015530;28;20004;-63
2022/02/28 01:09:40;;;;;;;;;;;;;;;17.89;41.45;102974.09;5015041;28;19917;-63
2022/02/28 01:12:07;;;;;;;;;;;;;;;17.86;41.88;102969.78;5015859;28;19956;-62
2022/02/28 01:14:32;;;;;;;;;;;;;;;17.85;41.81;102977.75;5015552;28;19917;-62
2022/02/28 01:16:58;;;;;;;;;;;;;;;17.83;41.97;102972.56;5015068;28;19996;-62
2022/02/28 01:19:23;;;;;;;;;;;;;;;17.82;41.39;102973.50;5015490;28;20288;-63
2022/02/28 01:21:48;;;;;;;;;;;;;;;17.80;41.44;102969.19;5015467;28;20045;-62
2022/02/28 01:24:13;;;;;;;;;;;;;;;17.79;41.57;102973.63;5014965;28;20301;-62
2022/02/28 01:26:38;;;;;;;;;;;;;;;17.76;41.35;102969.34;5015194;28;20403;-63
2022/02/28 01:29:06;;;;;;;;;;;;;;;17.73;41.65;102974.75;5015306;28;19913;-63
2022/02/28 01:31:31;;;;;;;;;;;;;;;17.72;41.64;102973.06;5014177;28;19917;-63
2022/02/28 01:34:17;;;;;;;;;;;;;;;17.71;42.16;102971.34;5015297;28;19913;-63
2022/02/28 01:36:42;;;;;;;;;;;;;;;17.74;42.33;102965.09;5013913;28;19917;-63
2022/02/28 01:39:07;;;;;;;;;;;;;;;17.77;42.17;102959.66;5015340;28;20384;-63
2022/02/28 01:41:33;;;;;;;;;;;;;;;17.80;42.40;102963.94;5014982;28;19913;-63
2022/02/28 01:43:58;;;;;;;;;;;;;;;17.81;42.39;102961.22;5014431;28;19914;-63
2022/02/28 01:46:23;;;;;;;;;;;;;;;17.83;42.11;102962.03;5014733;28;19920;-62
2022/02/28 01:48:48;;;;;;;;;;;;;;;17.84;41.95;102957.59;5014975;28;19920;-62
2022/02/28 01:51:13;;;;;;;;;;;;;;;17.85;41.99;102954.88;5014087;28;20292;-61
2022/02/28 01:53:38;;;;;;;;;;;;;;;17.87;41.99;102960.94;5014514;28;20008;-62
2022/02/28 01:56:04;;;;;;;4.53;2.50;;;;;;;17.87;41.56;102960.94;5014545;28;20054;-62
2022/02/28 01:58:34;;;;;;;5.55;2.70;;;;;;;17.86;41.38;102961.84;5013139;28;20022;-62
2022/02/28 02:00:59;;;;;;;4.47;2.30;;;;;;;17.89;41.99;102960.91;5014142;28;20385;-62
2022/02/28 02:03:25;;;;;;;4.97;2.60;;;;;;;17.86;41.59;102961.84;5013919;28;20029;-62
2022/02/28 02:05:50;;;;;;;6.63;2.85;;;;;;;17.88;41.09;102969.72;5013383;28;20022;-62
2022/02/28 02:08:15;;;;;;;4.43;2.40;;;;;;;17.87;41.06;102965.38;5014115;28;20045;-63
2022/02/28 02:10:43;;;;;;;5.38;2.60;;;;;;;17.85;41.09;102962.81;5013822;28;20065;-63
2022/02/28 02:13:10;;;;;;;6.45;2.67;;;;;;;17.86;40.76;102974.19;5013474;28;20389;-62
2022/02/28 02:15:36;;;;;;;4.60;2.45;;;;;;;17.85;40.63;102967.19;5013643;28;20426;-62
2022/02/28 02:18:04;;;;;;;4.65;2.50;;;;;;;17.82;40.90;102970.84;5014013;28;20057;-62
2022/02/28 02:20:32;;;;;;;5.47;2.47;;;;;;;17.82;40.71;102975.28;5013134;28;20014;-63
2022/02/28 02:22:59;;;;;;;6.18;2.33;;;;;;;17.81;40.76;102969.13;5014148;28;20030;-63
2022/02/28 02:25:27;;;;;;;5.32;2.67;;;;;;;17.80;40.42;102971.84;5013544;28;20033;-63
2022/02/28 02:27:53;;;;;;;4.75;2.50;;;;;;;17.77;40.80;102968.44;5013171;28;20033;-63
2022/02/28 02:30:20;;;;;;;4.68;2.40;;;;;;;17.79;40.95;102960.44;5013828;28;20022;-62
2022/02/28 02:32:46;;;;;;;4.97;2.50;;;;;;;17.78;41.03;102964.00;5013032;28;20061;-62
2022/02/28 02:35:11;;;;;;;4.38;2.40;;;;;;;17.79;41.03;102965.72;5014065;28;20072;-62
2022/02/28 02:37:37;;;;;;;4.27;2.30;;;;;;;17.80;41.36;102966.56;5013555;28;20164;-62
2022/02/28 02:40:03;;;;;;;5.00;2.25;;;;;;;17.80;41.23;102959.53;5012970;28;20413;-61
2022/02/28 02:42:28;;;;;;;4.88;2.50;;;;;;;17.80;41.27;102956.88;5013258;28;20029;-62
2022/02/28 02:44:54;;;;;;;4.17;2.47;;;;;;;17.80;41.27;102953.38;5013510;28;20030;-62
2022/02/28 02:47:19;;;;;;;4.67;2.60;;;;;;;17.81;40.99;102952.47;5012484;28;20294;-62
2022/02/28 02:49:47;;;;;;;4.45;2.30;;;;;;;17.82;40.95;102954.19;5013588;28;20267;-61
2022/02/28 02:52:12;;;;;;;4.80;2.60;;;;;;;17.82;40.57;102943.63;5013586;28;20044;-62
2022/02/28 02:54:38;;;;;;;5.32;3.13;;;;;;;17.82;40.77;102944.47;5012260;28;20450;-62
2022/02/28 02:57:03;;;;;;;4.87;2.50;;;;;;;17.83;41.07;102947.97;5013401;28;20029;-62
2022/02/28 02:59:28;;;;;;;4.80;2.35;;;;;;;17.80;41.53;102951.63;5013053;28;20279;-62
2022/02/28 03:01:54;;;;;;;5.72;2.47;;;;;;;17.81;41.34;102952.47;5012475;28;20417;-62
2022/02/28 03:04:19;;;;;;;4.18;2.55;;;;;;;17.81;41.28;102955.94;5013303;28;20026;-62
2022/02/28 03:06:44;;;;;;;5.22;2.38;;;;;;;17.82;40.97;102947.13;5013412;28;20030;-62
2022/02/28 03:09:14;;;;;;;5.63;2.80;;;;;;;17.83;40.85;102953.25;5012262;28;20048;-62
2022/02/28 03:11:44;;;;;;;5.35;2.40;;;;;;;17.83;40.86;102946.19;5012397;28;20429;-62
2022/02/28 03:14:11;;;;;;;4.57;2.17;;;;;;;17.83;40.99;102951.47;5013083;28;20022;-62
2022/02/28 03:16:37;;;;;;;4.55;2.45;;;;;;;17.82;40.62;102960.31;5011884;28;20029;-62
2022/02/28 03:19:03;;;;;;;4.07;2.38;;;;;;;17.83;40.83;102947.97;5013278;28;20030;-62
2022/02/28 03:21:31;;;;;;;4.40;2.50;;;;;;;17.83;40.65;102956.75;5012842;28;20029;-62
2022/02/28 03:23:57;;;;;;;4.22;2.30;;;;;;;17.84;40.85;102944.41;5012422;28;20029;-62
2022/02/28 03:26:22;;;;;;;4.93;2.40;;;;;;;17.84;41.16;102939.13;5012634;28;20026;-62
2022/02/28 03:28:48;;;;;;;4.30;2.20;;;;;;;17.83;40.82;102946.19;5012903;28;20577;-62
2022/02/28 03:31:13;;;;;;;4.90;2.80;;;;;;;17.84;40.74;102942.63;5012077;28;20136;-62
2022/02/28 03:33:38;;;;;;;4.73;2.30;;;;;;;17.85;40.48;102948.72;5012525;28;20113;-63
2022/02/28 03:36:04;;;;;;;5.00;2.60;;;;;;;17.84;40.56;102953.16;5012358;28;20429;-62
2022/02/28 03:38:29;;;;;;;5.13;2.50;;;;;;;17.82;40.22;102947.13;5012659;28;20023;-62
2022/02/28 03:40:55;;;;;;;4.60;2.50;;;;;;;17.85;40.23;102956.66;5012895;28;20118;-62
2022/02/28 03:43:21;;;;;;;4.73;2.47;;;;;;;17.84;40.22;102953.16;5011885;28;20333;-62
2022/02/28 03:45:46;;;;;;;6.15;2.47;;;;;;;17.83;40.21;102956.75;5012750;28;20292;-62
2022/02/28 03:48:13;;;;;;;4.90;2.35;;;;;;;17.84;40.22;102966.34;5012927;28;20038;-62
2022/02/28 03:50:39;;;;;;;4.88;2.47;;;;;;;17.83;40.52;102951.47;5011973;28;20448;-62
2022/02/28 03:53:04;;;;;;;5.03;2.33;;;;;;;17.80;40.57;102951.63;5012951;28;20515;-62
2022/02/28 03:55:29;;;;;;;5.43;2.25;;;;;;;17.83;40.54;102950.59;5012360;28;20488;-62
2022/02/28 03:57:54;;;;;;;5.00;2.30;;;;;;;17.81;40.76;102948.03;5012086;28;20030;-63
2022/02/28 04:00:20;;;;;;;6.17;2.60;;;;;;;17.82;40.46;102951.53;5012412;28;20094;-63
2022/02/28 04:02:46;;;;;;;4.30;2.45;;;;;;;17.82;40.77;102943.63;5012874;28;20774;-62
2022/02/28 04:05:12;;;;;;;5.97;2.58;;;;;;;17.82;40.22;102947.13;5012222;28;20030;-62
2022/02/28 04:07:38;;;;;;;4.18;2.22;;;;;;;17.83;40.37;102950.59;5012267;28;20136;-62
2022/02/28 04:10:04;;;;;;;4.30;2.20;;;;;;;17.83;40.56;102942.69;5012771;28;20026;-62
2022/02/28 04:12:30;;;;;;;5.38;2.45;;;;;;;17.83;40.00;102950.59;5011662;28;20029;-62
2022/02/28 04:14:55;;;;;;;4.43;2.35;;;;;;;17.81;40.10;102942.75;5012568;28;20398;-62
2022/02/28 04:17:21;;;;;;;4.40;2.28;;;;;;;17.82;39.93;102941.84;5012382;28;20037;-62
2022/02/28 04:19:46;;;;;;;5.25;2.53;;;;;;;17.83;39.71;102940.03;5011948;28;20485;-62
2022/02/28 04:22:11;;;;;;;4.95;2.30;;;;;;;17.81;39.96;102936.63;5013523;28;20046;-63
2022/02/28 04:24:39;;;;;;;4.47;2.10;;;;;;;17.82;40.38;102936.56;5015739;28;20022;-63
2022/02/28 04:27:05;;;;;;;5.55;2.90;;;;;;;17.82;40.49;102938.34;5015296;28;20072;-63
2022/02/28 04:29:31;;;;;;;5.55;2.28;;;;;;;17.81;40.31;102928.72;5015715;28;20104;-63
2022/02/28 04:31:56;;;;;;;4.15;2.33;;;;;;;17.81;40.25;102924.28;5016154;28;20026;-63
2022/02/28 04:34:21;;;;;;;4.43;2.50;;;;;;;17.80;40.33;102913.81;5015153;28;20030;-61
2022/02/28 04:36:46;;;;;;;5.03;2.37;;;;;;;17.82;40.53;102925.16;5015968;28;20513;-62
2022/02/28 04:39:12;;;;;;;4.63;2.10;;;;;;;17.82;40.28;102926.00;5016232;28;20298;-62
2022/02/28 04:41:37;;;;;;;;;;;;;;;17.82;40.28;102927.81;5015014;28;20041;-62
2022/02/28 04:44:03;;;;;;;;;;;;;;;17.81;40.09;102934.84;5016048;28;19941;-62
2022/02/28 04:46:28;;;;;;;;;;;;;;;17.81;40.07;102929.56;5015242;28;19952;-62
2022/02/28 04:48:53;;;;;;;;;;;;;;;17.81;39.96;102928.72;5016179;28;19913;-61
2022/02/28 04:51:19;;;;;;;;;;;;;;;17.81;40.32;102937.47;5016036;28;20325;-62
2022/02/28 04:53:44;;;;;;;;;;;;;;;17.81;40.56;102926.94;5015145;28;19917;-62
2022/02/28 04:56:09;;;;;;;;;;;;;;;17.81;40.57;102928.72;5016025;28;19920;-62
2022/02/28 04:58:34;;;;;;;;;;;;;;;17.81;40.23;102929.56;5015194;28;19910;-62
2022/02/28 05:01:03;;;;;;;;;;;;;;;17.81;40.15;102924.28;5015336;28;19913;-62
2022/02/28 05:03:28;;;;;;;;;;;;;;;17.82;40.34;102931.28;5015594;28;20007;-61
2022/02/28 05:05:53;;;;;;;;;;;;;;;17.81;40.08;102926.94;5015777;28;19968;-62
2022/02/28 05:08:18;;;;;;;;;;;;;;;17.80;40.04;102925.25;5014815;28;20508;-62
2022/02/28 05:10:44;;;;;;;;;;;;;;;17.80;40.03;102927.00;5015395;28;19914;-62
2022/02/28 05:13:09;;;;;;;;;;;;;;;17.81;39.74;102931.38;5015634;28;19917;-62
2022/02/28 05:15:37;;;;;;;;;;;;;;;17.79;40.12;102931.44;5014797;28;20446;-62
2022/02/28 05:18:06;;;;;;;;;;;;;;;17.79;40.02;102939.34;5015682;28;19913;-62
2022/02/28 05:20:31;;;;;;;;;;;;;;;17.80;40.05;102934.91;5015203;28;19914;-62
2022/02/28 05:22:56;;;;;;;;;;;;;;;17.80;40.29;102942.81;5014604;28;20348;-62
2022/02/28 05:25:27;;;;;;;;;;;;;;;17.80;40.05;102938.44;5015113;28;19917;-62
2022/02/28 05:27:56;;;;;;;;;;;;;;;17.80;40.23;102941.06;5015302;28;20036;-63
2022/02/28 05:30:21;;;;;;;;;;;;;;;17.80;39.82;102941.06;5014581;28;19913;-63
2022/02/28 05:32:46;;;;;;;;;;;;;;;17.80;39.74;102943.69;5015347;28;19917;-63
2022/02/28 05:35:12;;;;;;;;;;;;;;;17.80;39.76;102940.19;5014602;28;19921;-62
2022/02/28 05:37:38;;;;;;;;;;;;;;;17.79;39.57;102938.50;5014052;28;19913;-62
2022/02/28 05:40:04;;;;;;;;;;;;;;;17.79;39.76;102939.34;5015015;28;19913;-63
2022/02/28 05:42:29;;;;;;;;;;;;;;;17.78;40.21;102940.25;5014651;28;20262;-63
2022/02/28 05:44:54;;;;;;;;;;;;;;;17.79;40.08;102943.78;5014575;28;19917;-63
2022/02/28 05:47:19;;;;;;;;;;;;;;;17.79;39.98;102935.88;5014758;28;20288;-63
2022/02/28 05:49:45;;;;;;;;;;;;;;;17.80;40.16;102940.19;5014362;28;19966;-63
2022/02/28 05:52:10;;;;;;;;;;;;;;;17.80;39.99;102945.47;5015004;28;19955;-63
2022/02/28 05:54:37;;;;;;;;;;;;;;;17.79;39.83;102957.81;5014557;28;19998;-63
2022/02/28 05:57:02;;;;;;;;;;;;;;;17.79;39.63;102962.25;5014070;28;19932;-63
2022/02/28 05:59:27;;;;;;;;;;;;;;;17.79;39.62;102960.44;5014751;28;19917;-63
2022/02/28 06:01:52;;;;;;;;;;;;;;;17.79;39.76;102962.25;5014957;28;20331;-63
2022/02/28 06:04:18;;;;;;;;;;;;;;;17.80;40.25;102963.94;5014142;28;19914;-63
2022/02/28 06:06:43;;;;;;;;;;;;;;;17.81;40.88;102966.50;5014372;28;19960;-63
2022/02/28 06:09:08;;;;;;;4.70;2.07;;;;;;;17.84;41.46;102970.78;5013944;28;20774;-62
2022/02/28 06:11:36;;;;;;;4.63;2.33;;;;;;;17.86;41.72;102963.66;5013063;28;20294;-62
2022/02/28 06:14:01;;;;;;;5.50;2.22;;;;;;;17.90;41.39;102962.63;5014260;28;20281;-62
2022/02/28 06:16:27;;;;;;;5.15;2.40;;;;;;;17.91;41.23;102962.56;5013965;28;20108;-63
2022/02/28 06:18:52;;;;;;;5.33;2.50;;;;;;;17.94;41.25;102966.81;5013355;28;20038;-62
2022/02/28 06:21:17;;;;;;;5.05;2.47;;;;;;;17.95;41.21;102964.09;5013968;28;20268;-63
2022/02/28 06:23:45;;;;;;;4.57;2.40;;;;;;;17.99;41.32;102977.16;5013613;28;20026;-63
2022/02/28 06:26:14;;;;;;;5.35;2.47;;;;;;;17.98;40.77;102973.66;5012969;28;20025;-63
2022/02/28 06:28:39;;;;;;;5.63;2.30;;;;;;;17.99;40.73;102967.47;5013307;28;20083;-63
2022/02/28 06:31:05;;;;;;;5.57;2.30;;;;;;;18.02;40.76;102974.38;5013743;28;20109;-63
2022/02/28 06:33:34;;;;;;;4.97;2.25;;;;;;;18.02;40.82;102977.00;5012961;28;20469;-63
2022/02/28 06:36:00;;;;;;;5.07;2.05;;;;;;;18.04;40.51;102977.78;5013457;28;20054;-62
2022/02/28 06:38:28;;;;;;;5.20;2.40;;;;;;;18.05;40.49;102980.34;5013220;28;20026;-62
2022/02/28 06:40:54;;;;;;;4.47;2.20;;;;;;;18.04;40.58;102973.38;5012578;28;20458;-63
2022/02/28 06:43:20;;;;;;;4.88;2.10;;;;;;;18.06;40.91;102982.06;5013377;28;20033;-63
2022/02/28 06:45:47;;;;;;;5.25;2.33;;;;;;;18.08;40.82;102987.28;5012657;28;20432;-62
2022/02/28 06:48:12;;;;;;;4.70;2.47;;;;;;;18.09;40.92;102991.63;5012811;28;20034;-62
2022/02/28 06:50:38;;;;;;;4.65;2.30;;;;;;;18.09;40.77;102981.91;5012938;28;20034;-62
2022/02/28 06:53:03;;;;;;;3.97;2.03;;;;;;;18.10;40.83;102974.84;5012506;28;20129;-62
2022/02/28 06:55:28;;;;;;;4.88;2.45;;;;;;;18.09;41.35;102981.06;5012763;28;20030;-62
2022/02/28 06:57:54;;;;;;;5.00;2.42;;;;;;;18.13;41.37;102986.13;5013264;28;20029;-62
2022/02/28 07:00:19;;;;;;;5.40;2.50;;;;;;;18.13;41.01;102987.91;5012186;28;20021;-63
2022/02/28 07:02:44;;;;;;;4.78;2.40;;;;;;;18.14;40.86;102986.97;5013285;28;20036;-62
2022/02/28 07:05:09;;;;;;;4.70;2.43;;;;;;;18.15;41.36;102982.56;5013192;28;20030;-62
2022/02/28 07:07:37;;;;;;;4.15;2.20;;;;;;;18.17;41.49;102983.34;5011863;28;20312;-62
2022/02/28 07:10:03;;;;;;;5.43;2.40;;;;;;;18.16;41.43;102982.47;5013126;28;20030;-62
2022/02/28 07:12:29;;;;;;;5.25;2.50;;;;;;;18.18;41.32;102987.69;5012963;28;20022;-63
2022/02/28 07:14:54;;;;;;;4.88;2.83;;;;;;;18.19;41.23;102981.50;5012352;28;20025;-63
2022/02/28 07:17:19;;;;;;;4.55;2.28;;;;;;;18.20;42.43;102978.78;5012773;28;20438;-62
2022/02/28 07:19:44;;;;;;;4.78;2.08;;;;;;;18.21;43.54;102977.84;5013126;28;20072;-63
2022/02/28 07:22:10;;;;;;;4.17;2.00;;;;;;;18.23;43.90;102983.03;5012458;28;20022;-63
2022/02/28 07:24:35;;;;;;;5.38;2.47;;;;;;;18.23;43.30;102986.56;5012582;28;20627;-62
2022/02/28 07:27:01;;;;;;;4.23;2.00;;;;;;;18.25;42.60;102984.69;5013034;28;20037;-63
2022/02/28 07:29:27;;;;;;;5.40;2.20;;;;;;;18.25;42.83;102984.69;5012131;28;20806;-63
2022/02/28 07:31:52;;;;;;;;;;;;;;;18.28;43.03;102991.63;5013175;28;20026;-62
2022/02/28 07:34:17;;;;;;;;;;;;;;;18.29;43.33;102995.94;5013315;28;19913;-62
2022/02/28 07:36:42;;;;;;;;;;;;;;;18.31;43.00;102999.38;5012296;28;19923;-63
2022/02/28 07:39:07;;;;;;;;;;;;;;;18.27;41.10;102990.72;5013029;28;19917;-63
2022/02/28 07:41:32;;;;;;;;;;;;;;;18.31;41.96;102992.31;5012830;28;20016;-65
2022/02/28 07:43:58;;;;;;;;;;;;;;;18.37;42.50;103001.69;5012511;28;19975;-65
2022/02/28 07:46:23;;;;;;;;;;;;;;;18.41;42.73;103000.63;5012903;28;19949;-65
2022/02/28 07:48:48;;;;;;;;;;;;;;;18.46;42.82;102997.78;5013300;28;20299;-62
2022/02/28 07:51:14;;;;;;;;;;;;;;;18.49;42.44;102984.44;5012343;28;19914;-63
2022/02/28 07:53:39;;;;;;;;;;;;;;;18.54;42.02;102997.41;5012996;28;19924;-62
2022/02/28 07:56:08;;;;;;;5.55;1.90;;;;;;;18.58;42.47;103007.75;5013110;28;19952;-62
2022/02/28 07:58:34;;;;;;;5.20;2.50;;;;;;;18.58;40.10;102999.81;5014924;28;20049;-63
2022/02/28 08:00:59;;;;;;;;;;;;;;;18.59;41.28;103003.31;5017072;28;20456;-64
2022/02/28 08:03:24;;;;;;;;;;;;;;;18.62;41.77;103011.94;5016021;28;19947;-64
2022/02/28 08:05:49;;;;;;;;;;;;;;;18.65;42.17;103018.84;5016735;28;19917;-63
2022/02/28 08:08:14;;;;;;;;;;;;;;;18.68;42.09;103026.63;5016396;28;20004;-63
2022/02/28 08:10:40;;;;;;;;;;;;;;;18.72;42.67;103035.25;5015660;28;19917;-64
2022/02/28 08:13:06;;;;;;;;;;;;;;;18.74;42.36;103036.91;5017024;28;19952;-64
2022/02/28 08:15:31;;;;;;;;;;;;;;;18.78;42.20;103034.94;5016176;28;19913;-65
2022/02/28 08:17:56;;;;;;;;;;;;;;;18.80;41.80;103036.59;5016316;28;19920;-69
2022/02/28 08:20:21;;;;;;;;;;;;;;;18.88;42.49;103030.94;5016444;28;19917;-69
2022/02/28 08:22:46;;;;;;;;;;;;;;;18.97;43.08;103029.63;5016543;28;19913;-69
2022/02/28 08:25:11;;;;;;;;;;;;;;;19.06;42.92;103028.31;5016072;28;19967;-68
2022/02/28 08:27:38;;;;;;;;;;;;;;;19.14;42.66;103036.72;5016331;28;19913;-67
2022/02/28 08:30:04;;;;;;;;;;;;;;;19.16;42.38;103038.34;5016759;28;20336;-69
2022/02/28 08:32:29;;;;;;;;;;;;;;;19.18;42.64;103036.50;5015308;28;19913;-68
2022/02/28 08:34:54;;;;;;;;;;;;;;;19.19;42.52;103030.25;5016498;28;19971;-68
2022/02/28 08:37:19;;;;;;;;;;;;;;;19.21;42.69;103032.81;5016053;28;19968;-69
2022/02/28 08:39:44;;;;;;;;;;;;;;;19.25;42.79;103031.72;5015320;28;19913;-69
2022/02/28 08:42:10;;;;;;;;;;;;;;;19.29;43.47;103035.06;5016211;28;20288;-69
2022/02/28 08:44:44;;;;;;;;;;;;;;;19.34;43.32;103035.69;5016118;28;19913;-69
2022/02/28 08:47:10;;;;;;;;;;;;;;;19.38;43.14;103037.22;5015461;28;20337;-69
2022/02/28 08:49:35;;;;;;;;;;;;;;;19.44;42.84;103030.75;5015948;28;20395;-66
2022/02/28 08:52:01;;;;;;;4.25;1.92;;;;;;;19.46;42.68;103026.25;5015541;28;20103;-66
2022/02/28 08:54:26;;;;;;;5.97;2.35;;;;;;;19.48;42.84;103024.38;5014818;28;20165;-66
2022/02/28 08:56:52;;;;;;;7.05;2.70;;;;;;;19.47;41.63;103014.72;5015775;28;20421;-66
2022/02/28 08:59:17;;;;;;;5.00;2.20;;;;;;;19.44;39.93;103007.84;5015659;28;20362;-66
2022/02/28 09:01:42;;;;;;;4.68;2.08;;;;;;;19.44;41.81;103010.47;5014522;28;20033;-66
2022/02/28 09:04:08;;;;;;;6.33;2.20;;;;;;;19.43;42.08;103013.19;5015499;28;20061;-65
2022/02/28 09:06:33;;;;;;;4.93;2.00;;;;;;;19.49;42.42;103026.94;5014924;28;20291;-65
2022/02/28 09:08:58;;;;;;;4.13;2.20;;;;;;;19.53;43.20;103017.06;5013569;28;20489;-65
2022/02/28 09:11:24;;;;;;;5.15;1.98;;;;;;;19.57;43.45;103014.16;5015372;28;20286;-64
2022/02/28 09:13:50;;;;;;;5.05;2.20;;;;;;;19.61;42.93;103009.56;5014868;28;20406;-64
2022/02/28 09:16:16;;;;;;;5.25;2.00;;;;;;;19.64;42.63;103014.69;5015341;28;20021;-63
2022/02/28 09:18:42;;;;;;;4.40;2.00;;;;;;;19.65;42.74;103016.41;5014884;28;20303;-62
2022/02/28 09:21:07;;;;;;;6.88;2.78;;;;;;;19.67;41.20;103003.09;5014285;28;20018;-64
2022/02/28 09:23:32;;;;;;;5.07;2.28;;;;;;;19.67;42.19;103003.09;5015051;28;20030;-64
2022/02/28 09:25:58;;;;;;;5.38;2.22;;;;;;;19.70;43.15;103003.78;5015097;28;20029;-64
2022/02/28 09:28:24;;;;;;;6.82;2.25;;;;;;;19.74;43.14;103005.34;5014110;28;20048;-64
2022/02/28 09:30:50;;;;;;;4.25;2.03;;;;;;;19.79;42.92;103004.25;5014977;28;20018;-64
2022/02/28 09:33:15;;;;;;;7.18;2.30;;;;;;;19.82;43.03;103006.72;5014928;28;20048;-64
2022/02/28 09:35:40;;;;;;;4.07;2.00;;;;;;;19.84;42.80;103004.88;5013885;28;20054;-65
2022/02/28 09:38:06;;;;;;;6.55;2.20;;;;;;;19.86;42.93;103003.00;5015037;28;20029;-64
2022/02/28 09:40:32;;;;;;;5.85;1.90;;;;;;;19.87;43.12;103002.91;5014736;28;20050;-65
2022/02/28 09:43:03;;;;;;;7.10;2.10;;;;;;;19.88;42.87;102998.44;5014112;28;20033;-65
2022/02/28 09:45:30;;;;;;;4.10;2.30;;;;;;;19.87;42.82;102994.13;5014185;28;20037;-64
2022/02/28 09:47:56;;;;;;;3.90;1.83;;;;;;;19.87;42.93;102989.66;5014619;28;20065;-65
2022/02/28 09:50:22;;;;;;;5.45;2.15;;;;;;;19.84;43.00;102987.19;5013529;28;20105;-64
2022/02/28 09:52:50;;;;;;;4.25;2.05;;;;;;;19.81;42.14;102986.50;5014726;28;20493;-64
2022/02/28 09:55:15;;;;;;;4.80;2.22;;;;;;;19.78;42.97;102984.03;5014779;28;20022;-63
2022/02/28 09:57:46;;;;;;;4.65;2.10;;;;;;;19.76;42.11;102978.81;5013612;28;20025;-63
2022/02/28 10:00:17;;;;;;;4.88;2.13;;;;;;;19.77;42.30;102971.72;5014552;28;20026;-63
2022/02/28 10:02:42;;;;;;;5.22;2.30;;;;;;;19.76;40.23;102968.25;5013999;28;20389;-62
2022/02/28 10:05:08;;;;;;;4.72;2.38;;;;;;;19.73;41.91;102966.56;5013563;28;20026;-63
2022/02/28 10:07:33;;;;;;;3.85;1.70;;;;;;;19.75;42.68;102966.50;5013802;28;20133;-64
2022/02/28 10:10:10;;;;;;;5.10;2.20;;;;;;;19.73;40.92;102960.44;5013566;28;20100;-66
2022/02/28 10:12:36;;;;;;;4.53;2.30;;;;;;;19.73;40.86;102965.72;5014037;28;20041;-64
2022/02/28 10:15:15;;;;;;;6.13;2.40;;;;;;;19.73;41.16;102957.78;5014396;28;20026;-64
2022/02/28 10:17:48;;;;;;;5.25;2.42;;;;;;;19.73;41.86;102960.44;5013165;28;20088;-63
2022/02/28 10:20:35;;;;;;;6.78;2.20;;;;;;;19.74;41.27;102978.00;5013893;28;20496;-62
2022/02/28 10:23:02;;;;;;;6.05;2.40;;;;;;;19.70;41.04;102969.38;5014167;28;20101;-65
2022/02/28 10:25:30;;;;;;;4.25;2.30;;;;;;;19.71;41.41;102970.22;5012788;28;20473;-66
2022/02/28 10:28:16;;;;;;;6.50;2.35;;;;;;;19.71;42.16;102955.22;5013840;28;20037;-64
2022/02/28 10:31:02;;;;;;;5.65;2.45;;;;;;;19.71;42.33;102959.66;5013368;28;20080;-65
2022/02/28 10:33:32;;;;;;;5.45;2.10;;;;;;;19.71;42.06;102965.81;5013461;28;20038;-65
2022/02/28 10:36:21;;;;;;;6.40;2.50;;;;;;;19.73;42.21;102968.38;5013605;28;20050;-64
2022/02/28 10:38:49;;;;;;;4.53;2.40;;;;;;;19.73;42.69;102952.50;5013110;28;20044;-64
2022/02/28 10:41:21;;;;;;;5.10;2.45;;;;;;;19.69;42.79;102946.53;5013708;28;20022;-65
2022/02/28 10:43:52;;;;;;;6.35;2.17;;;;;;;19.63;42.58;102951.28;5013570;28;20377;-65
2022/02/28 10:46:29;;;;;;;6.53;2.28;;;;;;;19.58;43.28;102955.06;5012666;28;20478;-64
2022/02/28 10:49:02;;;;;;;4.82;2.25;;;;;;;19.53;43.01;102951.78;5013541;28;20465;-61
2022/02/28 10:51:29;;;;;;;4.57;2.20;;;;;;;19.50;42.47;102953.75;5013530;28;20054;-64
2022/02/28 10:54:13;;;;;;;5.10;2.20;;;;;;;19.45;43.11;102953.16;5012912;28;20033;-63
2022/02/28 10:56:50;;;;;;;6.30;2.60;;;;;;;19.43;42.72;102952.38;5013251;28;20022;-63
2022/02/28 10:59:16;;;;;;;;;;;;;;;19.36;40.36;102958.00;5013116;28;20030;-63
2022/02/28 11:01:42;;;;;;;;;;;;;;;19.32;42.16;102950.31;5013689;28;20288;-63
2022/02/28 11:04:07;;;;;;;;;;;;;;;19.31;42.27;102957.38;5013808;28;20280;-63
2022/02/28 11:06:34;;;;;;;;;;;;;;;19.31;42.11;102959.16;5012671;28;19918;-63
2022/02/28 11:08:59;;;;;;;;;;;;;;;19.31;42.16;102952.09;5013416;28;19917;-63
2022/02/28 11:11:25;;;;;;;;;;;;;;;19.32;41.42;102950.31;5013134;28;19920;-62
2022/02/28 11:13:50;;;;;;;;;;;;;;;19.31;40.73;102945.94;5013032;28;20222;-62
2022/02/28 11:16:15;;;;;;;5.23;2.73;;;;;;;19.28;40.77;102944.34;5013179;28;20282;-62
2022/02/28 11:18:42;;;;;;;5.03;2.50;;;;;;;19.31;40.69;102941.53;5012902;28;20041;-63
2022/02/28 11:21:08;;;;;;;4.82;2.50;;;;;;;19.29;40.94;102943.38;5012303;28;20029;-64
2022/02/28 11:23:51;;;;;;;4.72;2.33;;;;;;;19.30;41.16;102944.25;5012673;28;20026;-63
2022/02/28 11:26:17;;;;;;;4.85;2.53;;;;;;;19.29;40.20;102946.03;5012938;28;20025;-64
2022/02/28 11:28:43;;;;;;;5.47;2.90;;;;;;;19.28;40.25;102941.69;5012010;28;20480;-62
2022/02/28 11:31:16;;;;;;;5.47;2.40;;;;;;;19.28;40.16;102946.09;5012633;28;20021;-63
2022/02/28 11:34:09;;;;;;;4.75;2.60;;;;;;;19.27;40.53;102955.00;5012506;28;20026;-62
2022/02/28 11:36:55;;;;;;;5.20;2.45;;;;;;;19.26;40.47;102947.97;5011659;28;20034;-62
2022/02/28 11:39:29;;;;;;;5.63;2.30;;;;;;;19.27;41.01;102936.47;5012770;28;20022;-61
2022/02/28 11:41:54;;;;;;;4.45;2.20;;;;;;;19.27;41.43;102939.13;5011986;28;20033;-62
2022/02/28 11:44:20;;;;;;;6.20;2.75;;;;;;;19.27;39.89;102952.34;5012511;28;20049;-64
2022/02/28 11:46:46;;;;;;;5.75;3.30;;;;;;;19.20;37.49;102949.16;5012869;28;20041;-62
2022/02/28 11:49:11;;;;;;;8.25;2.83;;;;;;;19.17;38.86;102944.06;5011864;28;20033;-61